Time;durP1;ratioP1;P1;durP2;ratioP2;P2;SDS_P1;SDS_P2;PMS_P1;PMS_P2;Temp;Humidity;BMP_temperature;BMP_pressure;BME280_temperature;BME280_humidity;BME280_pressure;Samples;Min_cycle;Max_cycle;Signal;HPM_P1;HPM_P2
2023/05/15 00:00:03;;;;;;;6.47;5.88;;;11.10;99.90;;;;;;6177139;28;20057;-82
2023/05/15 00:03:04;;;;;;;9.60;6.57;;;11.00;99.90;;;;;;6181656;28;20094;-83
2023/05/15 00:06:06;;;;;;;6.75;5.90;;;10.90;99.90;;;;;;6180957;28;20054;-82
2023/05/15 00:09:08;;;;;;;8.32;6.63;;;10.90;99.90;;;;;;6180217;28;20507;-80
2023/05/15 00:12:11;;;;;;;6.95;6.20;;;10.80;99.90;;;;;;6180517;28;20065;-81
2023/05/15 00:15:13;;;;;;;7.32;6.50;;;10.80;99.90;;;;;;6181120;28;20051;-82
2023/05/15 00:18:17;;;;;;;9.32;6.43;;;10.80;99.90;;;;;;6181485;28;20053;-83
2023/05/15 00:21:19;;;;;;;8.00;6.72;;;10.80;99.90;;;;;;6182048;28;20043;-82
2023/05/15 00:24:23;;;;;;;6.85;6.10;;;10.80;99.90;;;;;;6191106;28;20508;-83
2023/05/15 00:27:26;;;;;;;7.40;6.30;;;10.80;99.90;;;;;;6182396;28;20054;-80
2023/05/15 00:30:28;;;;;;;7.88;7.07;;;10.70;99.90;;;;;;6182913;28;20050;-83
2023/05/15 00:33:33;;;;;;;7.88;7.07;;;10.70;99.90;;;;;;6181906;28;20050;-83
2023/05/15 00:36:35;;;;;;;8.10;6.00;;;10.70;99.90;;;;;;6181386;28;20038;-83
2023/05/15 00:39:51;;;;;;;7.65;6.88;;;10.70;99.90;;;;;;6173232;28;20055;-82
2023/05/15 00:46:36;;;;;;;7.85;6.43;;;10.50;99.90;;;;;;6172401;28;20182;-82
2023/05/15 00:49:41;;;;;;;9.18;7.55;;;10.60;99.90;;;;;;6191101;28;20050;-81
2023/05/15 00:52:43;;;;;;;8.98;7.35;;;10.60;99.90;;;;;;6205653;28;20046;-82
2023/05/15 00:55:51;;;;;;;9.88;8.40;;;10.70;99.90;;;;;;6197538;28;20122;-83
2023/05/15 00:59:10;;;;;;;7.28;6.53;;;10.80;99.90;;;;;;6215924;28;20065;-83
2023/05/15 01:02:30;;;;;;;8.88;7.65;;;10.80;99.90;;;;;;6196400;28;20592;-80
2023/05/15 01:09:02;;;;;;;6.75;5.95;;;10.90;99.90;;;;;;6195933;28;20517;-80
2023/05/15 01:12:06;;;;;;;9.27;8.35;;;11.00;99.90;;;;;;6207792;28;20105;-79
2023/05/15 01:15:36;;;;;;;6.28;5.65;;;11.00;99.90;;;;;;6210281;28;20077;-83
2023/05/15 01:18:49;;;;;;;6.78;5.75;;;11.00;99.90;;;;;;6181559;28;20078;-83
2023/05/15 01:22:27;;;;;;;8.25;7.10;;;11.00;99.90;;;;;;6200393;28;20519;-83
2023/05/15 01:26:06;;;;;;;7.90;6.50;;;11.00;99.90;;;;;;6188321;28;20567;-82
2023/05/15 01:29:23;;;;;;;7.22;6.53;;;11.00;99.90;;;;;;6203899;28;20121;-83
2023/05/15 01:32:32;;;;;;;7.20;5.88;;;11.00;99.90;;;;;;6205111;28;20046;-83
2023/05/15 01:35:50;;;;;;;11.35;6.53;;;11.00;99.90;;;;;;6212792;28;20053;-82
2023/05/15 01:39:02;;;;;;;7.03;6.35;;;11.00;99.90;;;;;;6218031;28;20421;-82
2023/05/15 01:42:32;;;;;;;7.03;6.40;;;11.00;99.90;;;;;;6220806;28;20886;-82
2023/05/15 01:46:00;;;;;;;6.80;6.20;;;11.10;99.90;;;;;;6172165;28;20054;-82
2023/05/15 01:49:08;;;;;;;7.47;6.63;;;11.00;99.90;;;;;;6171427;28;20062;-80
2023/05/15 01:52:21;;;;;;;9.00;7.57;;;11.10;99.90;;;;;;6175825;28;20057;-81
2023/05/15 01:55:44;;;;;;;7.60;6.72;;;11.00;99.90;;;;;;6187053;28;20055;-81
2023/05/15 01:58:50;;;;;;;8.95;7.22;;;11.00;99.90;;;;;;6179700;28;20121;-80
2023/05/15 02:01:54;;;;;;;7.13;6.43;;;11.00;99.90;;;;;;6179606;28;20573;-79
2023/05/15 02:04:57;;;;;;;12.95;6.45;;;11.00;99.90;;;;;;6179212;28;20213;-83
2023/05/15 02:08:00;;;;;;;7.97;6.65;;;10.90;99.90;;;;;;6179897;28;20544;-82
2023/05/15 02:11:03;;;;;;;7.65;6.95;;;10.90;99.90;;;;;;6179777;28;20061;-83
2023/05/15 02:14:05;;;;;;;7.82;6.93;;;10.80;99.90;;;;;;6179726;28;20069;-81
2023/05/15 02:17:08;;;;;;;8.50;7.70;;;10.80;99.90;;;;;;6178485;28;20051;-80
2023/05/15 02:20:10;;;;;;;8.27;7.30;;;10.70;99.90;;;;;;6178854;28;20043;-82
2023/05/15 02:23:12;;;;;;;9.88;7.75;;;10.70;99.90;;;;;;6179345;28;20055;-77
2023/05/15 02:26:31;;;;;;;11.00;7.57;;;10.70;99.90;;;;;;6179407;28;20053;-82
2023/05/15 02:29:42;;;;;;;8.55;7.72;;;10.70;99.90;;;;;;6178321;28;20055;-82
2023/05/15 02:32:50;;;;;;;9.73;8.73;;;10.80;99.90;;;;;;6178739;28;20600;-79
2023/05/15 02:35:59;;;;;;;9.82;8.25;;;10.80;99.90;;;;;;6177866;28;20417;-80
2023/05/15 02:39:02;;;;;;;10.25;9.07;;;10.80;99.90;;;;;;6179381;28;20049;-82
2023/05/15 02:42:05;;;;;;;11.82;8.55;;;10.90;99.90;;;;;;6179577;28;20117;-81
2023/05/15 02:45:09;;;;;;;9.55;8.52;;;10.90;99.90;;;;;;6188351;28;20051;-81
2023/05/15 02:48:12;;;;;;;9.52;8.48;;;10.90;99.90;;;;;;6180597;28;20170;-80
2023/05/15 02:51:14;;;;;;;9.77;8.05;;;10.90;99.90;;;;;;6180063;28;20085;-82
2023/05/15 02:54:16;;;;;;;10.43;8.45;;;10.90;99.90;;;;;;6178827;28;20685;-82
2023/05/15 02:57:18;;;;;;;8.55;7.68;;;10.90;99.90;;;;;;6178487;28;20054;-82
2023/05/15 03:00:20;;;;;;;8.90;8.00;;;10.90;99.90;;;;;;6177901;28;20051;-82
2023/05/15 03:03:23;;;;;;;9.07;8.18;;;10.90;99.90;;;;;;6176977;28;20054;-81
2023/05/15 03:06:25;;;;;;;12.10;9.60;;;10.80;99.90;;;;;;6176444;28;20541;-79
2023/05/15 03:09:27;;;;;;;8.73;7.82;;;10.80;99.90;;;;;;6177151;28;20050;-79
2023/05/15 03:12:28;;;;;;;9.27;8.38;;;10.80;99.90;;;;;;6175404;28;20046;-81
2023/05/15 03:15:30;;;;;;;10.02;7.97;;;10.80;99.90;;;;;;6178583;28;20062;-81
2023/05/15 03:18:33;;;;;;;9.48;8.32;;;10.80;99.90;;;;;;6179426;28;20053;-81
2023/05/15 03:21:35;;;;;;;11.23;9.15;;;10.80;99.90;;;;;;6179325;28;20522;-81
2023/05/15 03:24:37;;;;;;;9.98;8.95;;;10.90;99.90;;;;;;6178200;28;20057;-82
2023/05/15 03:27:39;;;;;;;8.85;7.90;;;10.90;99.90;;;;;;6177780;28;20051;-82
2023/05/15 03:30:43;;;;;;;8.23;7.32;;;11.00;99.90;;;;;;6180721;28;20528;-82
2023/05/15 03:33:48;;;;;;;7.80;7.00;;;11.10;99.90;;;;;;6188298;28;20039;-83
2023/05/15 03:36:50;;;;;;;8.65;7.80;;;11.10;99.90;;;;;;6200943;28;20042;-81
2023/05/15 03:39:52;;;;;;;10.20;8.02;;;11.10;99.90;;;;;;6192617;28;20043;-83
2023/05/15 03:42:53;;;;;;;10.38;9.30;;;11.10;99.90;;;;;;6179222;28;20055;-83
2023/05/15 03:45:55;;;;;;;8.88;7.95;;;11.20;99.90;;;;;;6177234;28;20050;-81
2023/05/15 03:48:58;;;;;;;11.13;7.80;;;11.20;99.90;;;;;;6176823;28;20421;-82
2023/05/15 03:52:00;;;;;;;10.65;8.35;;;11.20;99.90;;;;;;6185838;28;20047;-83
2023/05/15 03:55:02;;;;;;;11.18;9.43;;;11.20;99.90;;;;;;6179703;28;20047;-83
2023/05/15 03:58:04;;;;;;;8.85;7.30;;;11.20;99.90;;;;;;6180350;28;20047;-82
2023/05/15 04:01:06;;;;;;;9.93;7.95;;;11.20;99.90;;;;;;6185465;28;20425;-81
2023/05/15 04:04:09;;;;;;;9.90;8.93;;;11.20;99.90;;;;;;6185457;28;20527;-80
2023/05/15 04:07:11;;;;;;;12.13;8.50;;;11.20;99.90;;;;;;6183480;28;20478;-82
2023/05/15 04:10:13;;;;;;;10.45;8.27;;;11.20;99.90;;;;;;6184759;28;20047;-81
2023/05/15 04:13:14;;;;;;;8.38;7.18;;;11.20;99.90;;;;;;6186093;28;20051;-81
2023/05/15 04:16:16;;;;;;;12.10;7.70;;;11.30;99.90;;;;;;6184430;28;20057;-82
2023/05/15 04:19:19;;;;;;;8.25;7.18;;;11.40;99.90;;;;;;6184227;28;20054;-79
2023/05/15 04:22:21;;;;;;;9.45;8.52;;;11.40;99.90;;;;;;6183069;28;20047;-82
2023/05/15 04:25:23;;;;;;;8.70;7.72;;;11.40;99.90;;;;;;6182992;28;20047;-82
2023/05/15 04:28:24;;;;;;;10.18;7.68;;;11.40;99.90;;;;;;6191289;28;20046;-81
2023/05/15 04:31:27;;;;;;;11.73;8.32;;;11.40;99.90;;;;;;6205844;28;20053;-79
2023/05/15 04:34:30;;;;;;;9.75;7.68;;;11.50;99.90;;;;;;6180074;28;20054;-81
2023/05/15 04:37:31;;;;;;;13.50;7.78;;;11.50;99.90;;;;;;6183431;28;20049;-81
2023/05/15 04:40:33;;;;;;;8.70;7.65;;;11.60;99.90;;;;;;6197165;28;20520;-82
2023/05/15 04:43:35;;;;;;;8.13;7.32;;;11.50;99.90;;;;;;6186362;28;20133;-81
2023/05/15 04:46:37;;;;;;;10.27;8.50;;;11.60;99.90;;;;;;6184788;28;20057;-81
2023/05/15 04:49:41;;;;;;;10.30;7.47;;;11.60;99.90;;;;;;6189653;28;20056;-79
2023/05/15 04:52:44;;;;;;;8.20;7.50;;;11.70;99.90;;;;;;6187260;28;20537;-82
2023/05/15 04:55:46;;;;;;;10.48;8.30;;;11.70;99.90;;;;;;6187616;28;20050;-82
2023/05/15 04:58:48;;;;;;;10.27;7.97;;;11.70;99.90;;;;;;6189345;28;20055;-82
2023/05/15 05:01:49;;;;;;;8.55;7.65;;;11.70;99.90;;;;;;6189061;28;20047;-82
2023/05/15 05:04:52;;;;;;;9.70;7.50;;;11.80;99.90;;;;;;6190619;28;20054;-82
2023/05/15 05:07:54;;;;;;;7.70;7.00;;;11.80;99.90;;;;;;6191059;28;20066;-80
2023/05/15 05:10:57;;;;;;;9.00;7.75;;;11.90;99.90;;;;;;6187883;28;20541;-81
2023/05/15 05:13:58;;;;;;;8.23;7.30;;;11.90;99.90;;;;;;6186956;28;20089;-82
2023/05/15 05:17:00;;;;;;;7.78;7.05;;;12.00;99.90;;;;;;6185763;28;20054;-82
2023/05/15 05:20:18;;;;;;;8.07;7.30;;;12.10;99.90;;;;;;6176992;28;20039;-80
2023/05/15 05:23:21;;;;;;;7.95;7.15;;;12.40;99.90;;;;;;6197537;28;20054;-82
2023/05/15 05:26:35;;;;;;;8.07;7.28;;;12.60;99.90;;;;;;6230671;28;20068;-81
2023/05/15 05:29:52;;;;;;;9.30;8.35;;;12.90;99.90;;;;;;6231240;28;20046;-81
2023/05/15 05:33:01;;;;;;;12.02;7.13;;;13.30;99.90;;;;;;6200045;28;20098;-81
2023/05/15 05:36:15;;;;;;;7.25;6.57;;;13.80;99.90;;;;;;6183245;28;20046;-81
2023/05/15 05:39:23;;;;;;;7.22;6.35;;;14.30;99.90;;;;;;6201009;28;20489;-80
2023/05/15 05:42:32;;;;;;;8.35;6.90;;;14.70;99.90;;;;;;6195357;28;20062;-82
2023/05/15 05:45:37;;;;;;;7.97;6.50;;;15.50;99.90;;;;;;6220982;28;20054;-82
2023/05/15 05:48:38;;;;;;;6.95;6.35;;;16.40;99.90;;;;;;6233805;28;20046;-81
2023/05/15 05:51:42;;;;;;;6.20;5.45;;;17.00;99.90;;;;;;6223510;28;20153;-82
2023/05/15 05:54:46;;;;;;;7.97;5.47;;;17.70;99.90;;;;;;6228560;28;20402;-80
2023/05/15 05:57:48;;;;;;;9.48;5.78;;;18.60;99.90;;;;;;6227062;28;20050;-82
2023/05/15 06:00:53;;;;;;;15.13;5.55;;;19.60;99.90;;;;;;6227996;28;20434;-82
2023/05/15 06:03:56;;;;;;;7.53;4.95;;;19.90;99.90;;;;;;6239274;28;20113;-83
2023/05/15 06:07:01;;;;;;;5.88;5.28;;;19.60;99.90;;;;;;6235225;28;20066;-83
2023/05/15 06:10:03;;;;;;;6.18;4.53;;;18.90;99.90;;;;;;6228982;28;20052;-81
2023/05/15 06:13:04;;;;;;;8.02;5.22;;;18.50;99.90;;;;;;6227675;28;20413;-83
2023/05/15 06:16:06;;;;;;;5.43;4.10;;;18.10;99.90;;;;;;6227304;28;20072;-83
2023/05/15 06:19:08;;;;;;;6.28;4.90;;;17.70;99.90;;;;;;6228097;28;20053;-83
2023/05/15 06:22:11;;;;;;;7.07;5.22;;;17.50;99.90;;;;;;6226649;28;20042;-82
2023/05/15 06:25:13;;;;;;;6.80;6.10;;;17.50;99.90;;;;;;6227837;28;20046;-82
2023/05/15 06:28:15;;;;;;;6.10;5.50;;;17.50;99.90;;;;;;6226689;28;20045;-83
2023/05/15 06:31:17;;;;;;;7.03;4.07;;;17.70;99.90;;;;;;6227822;28;20386;-80
2023/05/15 06:34:18;;;;;;;5.80;4.45;;;17.90;99.90;;;;;;6225212;28;20058;-82
2023/05/15 06:37:21;;;;;;;6.05;4.45;;;18.50;99.90;;;;;;6225941;28;20049;-80
2023/05/15 06:40:23;;;;;;;4.95;4.45;;;19.10;99.90;;;;;;6225870;28;20057;-83
2023/05/15 06:43:25;;;;;;;4.03;3.70;;;19.60;99.90;;;;;;6225065;28;20054;-82
2023/05/15 06:46:26;;;;;;;7.47;4.18;;;20.10;99.90;;;;;;6225771;28;20428;-83
2023/05/15 06:49:28;;;;;;;4.30;3.70;;;20.50;99.90;;;;;;6198552;28;20054;-81
2023/05/15 06:52:31;;;;;;;4.88;4.47;;;20.30;99.90;;;;;;6224816;28;20046;-81
2023/05/15 06:55:35;;;;;;;4.63;4.22;;;20.10;99.90;;;;;;6227525;28;20053;-81
2023/05/15 06:58:37;;;;;;;6.07;4.07;;;19.70;99.90;;;;;;6225869;28;20054;-83
2023/05/15 07:01:39;;;;;;;4.40;4.00;;;19.30;99.90;;;;;;6226270;28;20046;-81
2023/05/15 07:04:40;;;;;;;4.10;3.70;;;19.00;99.90;;;;;;6226280;28;20432;-83
2023/05/15 07:07:43;;;;;;;11.90;4.40;;;18.90;99.90;;;;;;6225662;28;20046;-83
2023/05/15 07:10:45;;;;;;;5.15;4.65;;;18.80;99.90;;;;;;6234998;28;20050;-82
2023/05/15 07:13:47;;;;;;;4.75;4.28;;;18.60;99.90;;;;;;6228669;28;20049;-83
2023/05/15 07:16:49;;;;;;;4.07;3.78;;;18.90;99.90;;;;;;6203431;28;20057;-83
2023/05/15 07:19:50;;;;;;;4.20;3.90;;;19.50;99.90;;;;;;6179963;28;20046;-83
2023/05/15 07:22:53;;;;;;;5.93;4.47;;;19.90;99.90;;;;;;6169653;28;20055;-82
2023/05/15 07:25:55;;;;;;;5.53;4.65;;;19.90;98.80;;;;;;6178429;28;20050;-81
2023/05/15 07:28:57;;;;;;;5.45;4.72;;;19.90;99.00;;;;;;6159232;28;20414;-79
2023/05/15 07:31:59;;;;;;;5.43;4.45;;;19.80;98.50;;;;;;6170342;28;20046;-84
2023/05/15 07:35:02;;;;;;;5.65;5.05;;;19.50;98.60;;;;;;6181416;28;20053;-83
2023/05/15 07:38:05;;;;;;;6.80;3.75;;;19.40;98.90;;;;;;6173177;28;20074;-82
2023/05/15 07:41:07;;;;;;;7.07;4.78;;;19.40;98.90;;;;;;6187674;28;20134;-79
2023/05/15 07:44:09;;;;;;;8.75;3.90;;;19.60;98.80;;;;;;6182062;28;20497;-81
2023/05/15 07:47:11;;;;;;;3.83;3.53;;;19.70;98.40;;;;;;6174063;28;20059;-79
2023/05/15 07:50:12;;;;;;;4.60;3.88;;;20.00;98.70;;;;;;6171736;28;20405;-80
2023/05/15 07:53:15;;;;;;;5.00;4.22;;;20.90;97.80;;;;;;6170251;28;20058;-80
2023/05/15 07:56:17;;;;;;;7.05;3.97;;;21.30;96.90;;;;;;6174986;28;20054;-82
2023/05/15 07:59:20;;;;;;;3.35;3.05;;;21.50;96.10;;;;;;6172763;28;20055;-81
2023/05/15 08:02:21;;;;;;;3.78;3.38;;;21.30;95.90;;;;;;6170187;28;20042;-79
2023/05/15 08:05:23;;;;;;;3.50;3.00;;;21.40;95.50;;;;;;6196728;28;20065;-82
2023/05/15 08:08:26;;;;;;;3.95;3.22;;;22.10;95.60;;;;;;6198180;28;20038;-82
2023/05/15 08:11:28;;;;;;;3.67;2.95;;;22.80;94.40;;;;;;6190719;28;20057;-82
2023/05/15 08:14:30;;;;;;;3.30;3.00;;;23.70;93.70;;;;;;6165690;28;20054;-81
2023/05/15 08:17:31;;;;;;;2.78;2.58;;;24.80;92.40;;;;;;6170767;28;20058;-81
2023/05/15 08:20:33;;;;;;;3.33;2.63;;;25.60;90.60;;;;;;6165769;28;20040;-83
2023/05/15 08:23:36;;;;;;;1.85;1.75;;;26.00;87.70;;;;;;6161920;28;20137;-83
2023/05/15 08:26:38;;;;;;;2.30;2.10;;;26.20;83.70;;;;;;6160852;28;20050;-80
2023/05/15 08:29:39;;;;;;;2.53;2.08;;;26.50;81.50;;;;;;6163635;28;20039;-83
2023/05/15 08:32:43;;;;;;;3.67;2.42;;;26.70;79.10;;;;;;6161353;28;20042;-80
2023/05/15 08:35:44;;;;;;;2.72;2.30;;;27.00;76.60;;;;;;6164440;28;20059;-83
2023/05/15 08:38:47;;;;;;;3.28;2.40;;;27.40;74.00;;;;;;6176713;28;20066;-81
2023/05/15 08:41:56;;;;;;;3.47;3.03;;;27.20;72.40;;;;;;6173305;28;20070;-82
2023/05/15 08:44:58;;;;;;;2.40;2.20;;;27.60;69.60;;;;;;6172120;28;20050;-81
2023/05/15 08:48:01;;;;;;;5.03;2.83;;;27.60;69.00;;;;;;6170711;28;20039;-81
2023/05/15 08:51:04;;;;;;;4.53;2.78;;;27.70;67.70;;;;;;6172951;28;20058;-81
2023/05/15 08:54:08;;;;;;;2.63;2.42;;;27.40;66.40;;;;;;6195297;28;20043;-83
2023/05/15 08:57:10;;;;;;;2.97;2.38;;;26.90;65.50;;;;;;6186534;28;20046;-81
2023/05/15 09:00:13;;;;;;;2.60;2.40;;;26.30;66.30;;;;;;6177225;28;20053;-82
2023/05/15 09:03:18;;;;;;;6.65;3.13;;;25.80;66.30;;;;;;6177265;28;20505;-79
2023/05/15 09:06:21;;;;;;;3.55;3.17;;;25.60;67.20;;;;;;6171927;28;20054;-82
2023/05/15 09:09:26;;;;;;;4.05;2.83;;;26.00;66.30;;;;;;6193271;28;20064;-81
2023/05/15 09:12:28;;;;;;;4.88;3.25;;;26.40;66.10;;;;;;6198046;28;20046;-78
2023/05/15 09:15:30;;;;;;;6.28;3.33;;;26.80;65.00;;;;;;6196408;28;20047;-80
2023/05/15 09:18:32;;;;;;;4.30;2.90;;;26.80;65.20;;;;;;6201241;28;20058;-78
2023/05/15 09:21:34;;;;;;;3.55;3.25;;;26.90;65.40;;;;;;6200711;28;20058;-81
2023/05/15 09:24:38;;;;;;;4.10;3.30;;;27.30;65.10;;;;;;6187412;28;20049;-79
2023/05/15 09:27:43;;;;;;;3.03;2.75;;;27.50;63.10;;;;;;6178951;28;20482;-79
2023/05/15 09:30:45;;;;;;;3.80;3.40;;;27.30;62.90;;;;;;6176288;28;20058;-81
2023/05/15 09:33:47;;;;;;;5.05;2.53;;;27.20;62.40;;;;;;6192430;28;20049;-81
2023/05/15 09:36:48;;;;;;;3.78;2.70;;;27.20;62.00;;;;;;6199175;28;20039;-81
2023/05/15 09:39:52;;;;;;;2.72;2.50;;;27.10;61.30;;;;;;6193600;28;20047;-77
2023/05/15 09:42:53;;;;;;;2.97;2.53;;;27.30;60.60;;;;;;6173926;28;20062;-78
2023/05/15 09:45:55;;;;;;;2.42;2.00;;;27.40;60.50;;;;;;6176221;28;20058;-82
2023/05/15 09:48:57;;;;;;;3.55;2.60;;;27.50;59.50;;;;;;6172650;28;20043;-81
2023/05/15 09:51:59;;;;;;;3.97;2.60;;;27.70;59.70;;;;;;6176292;28;20528;-80
2023/05/15 09:55:03;;;;;;;2.50;2.30;;;28.00;58.90;;;;;;6166200;28;20047;-82
2023/05/15 09:58:10;;;;;;;3.47;2.88;;;28.00;58.20;;;;;;6177110;28;20049;-79
2023/05/15 10:01:12;;;;;;;3.38;3.08;;;27.70;57.70;;;;;;6170813;28;20469;-78
2023/05/15 10:04:14;;;;;;;7.93;2.83;;;27.60;58.20;;;;;;6174171;28;20050;-79
2023/05/15 10:07:27;;;;;;;2.65;2.42;;;27.90;57.80;;;;;;6169370;28;20254;-79
2023/05/15 10:10:31;;;;;;;2.83;2.63;;;27.70;57.40;;;;;;6174381;28;20092;-80
2023/05/15 10:13:35;;;;;;;3.80;2.63;;;27.60;56.70;;;;;;6168418;28;20062;-82
2023/05/15 10:16:39;;;;;;;8.85;2.22;;;27.60;57.10;;;;;;6178163;28;20105;-82
2023/05/15 10:19:42;;;;;;;2.92;2.72;;;27.80;57.00;;;;;;6171839;28;20051;-82
2023/05/15 10:22:46;;;;;;;3.45;2.67;;;28.30;56.80;;;;;;6197861;28;20050;-81
2023/05/15 10:25:58;;;;;;;3.15;2.50;;;28.20;56.50;;;;;;6178468;28;20038;-80
2023/05/15 10:29:02;;;;;;;3.10;2.80;;;28.20;56.40;;;;;;6173982;28;20540;-80
2023/05/15 10:32:04;;;;;;;3.92;3.10;;;28.50;56.10;;;;;;6172740;28;20070;-81
2023/05/15 10:35:09;;;;;;;2.85;2.65;;;28.70;55.10;;;;;;6163831;28;20050;-81
2023/05/15 10:38:12;;;;;;;7.20;2.90;;;28.90;55.20;;;;;;6200541;28;20045;-83
2023/05/15 10:41:17;;;;;;;4.22;2.85;;;29.20;53.80;;;;;;6189995;28;20059;-82
2023/05/15 10:44:20;;;;;;;3.72;3.17;;;29.00;53.40;;;;;;6176036;28;20061;-82
2023/05/15 10:47:21;;;;;;;3.55;3.03;;;29.00;53.90;;;;;;6177916;28;20070;-78
2023/05/15 10:50:23;;;;;;;3.35;3.10;;;29.00;53.00;;;;;;6166778;28;20058;-82
2023/05/15 10:53:25;;;;;;;3.78;3.00;;;28.70;52.50;;;;;;6164596;28;20506;-80
2023/05/15 10:56:30;;;;;;;17.95;1.90;;;28.20;52.80;;;;;;6160716;28;20047;-77
2023/05/15 10:59:32;;;;;;;9.43;1.25;;;27.80;52.20;;;;;;6157428;28;20047;-81
2023/05/15 11:02:38;;;;;;;13.05;1.75;;;26.80;52.70;;;;;;6174862;28;20065;-78
2023/05/15 11:06:09;;;;;;;1.85;1.20;;;25.70;53.70;;;;;;6169792;28;20141;-79
2023/05/15 11:09:34;;;;;;;1.38;1.10;;;25.30;53.90;;;;;;6162750;28;20438;-82
2023/05/15 11:12:58;;;;;;;2.70;1.15;;;24.80;54.70;;;;;;6165062;28;20054;-80
2023/05/15 11:16:00;;;;;;;1.98;0.98;;;24.20;55.40;;;;;;6169863;28;20413;-80
2023/05/15 11:19:02;;;;;;;1.50;1.38;;;23.70;56.20;;;;;;6171344;28;20549;-82
2023/05/15 11:22:17;;;;;;;1.30;1.20;;;23.20;57.20;;;;;;6193080;28;20421;-80
2023/05/15 11:25:28;;;;;;;1.10;1.00;;;22.90;58.60;;;;;;6182645;28;20382;-83
2023/05/15 11:28:40;;;;;;;2.95;1.10;;;22.60;59.30;;;;;;6176894;28;20042;-81
2023/05/15 11:31:42;;;;;;;2.25;1.20;;;22.20;60.50;;;;;;6172055;28;20046;-78
2023/05/15 11:34:43;;;;;;;1.58;1.40;;;22.00;61.90;;;;;;6165334;28;20413;-81
2023/05/15 11:37:47;;;;;;;4.25;1.23;;;21.70;62.70;;;;;;6167404;28;20054;-82
2023/05/15 11:40:51;;;;;;;3.22;1.42;;;21.50;63.50;;;;;;6168873;28;20047;-79
2023/05/15 11:43:55;;;;;;;1.42;1.17;;;21.20;64.90;;;;;;6169563;28;20042;-82
2023/05/15 11:46:57;;;;;;;2.75;1.50;;;21.10;66.90;;;;;;6172739;28;20061;-81
2023/05/15 11:49:59;;;;;;;1.45;1.33;;;21.10;67.80;;;;;;6173455;28;20050;-81
2023/05/15 11:53:06;;;;;;;2.92;1.20;;;20.90;68.10;;;;;;6174128;28;20050;-80
2023/05/15 11:56:12;;;;;;;4.32;1.13;;;20.90;68.40;;;;;;6208701;23;20045;-82
2023/05/15 11:59:15;;;;;;;1.90;1.67;;;20.70;68.30;;;;;;6223808;28;20050;-81
2023/05/15 12:02:17;;;;;;;1.60;1.50;;;20.60;68.60;;;;;;6223393;28;20050;-85
2023/05/15 12:05:18;;;;;;;1.30;1.20;;;20.70;68.80;;;;;;6232940;28;20058;-85
2023/05/15 12:08:21;;;;;;;94.78;60.40;;;20.60;69.30;;;;;;6242948;28;20488;-82
2023/05/15 12:11:23;;;;;;;14.60;13.18;;;20.60;70.90;;;;;;6251812;28;20053;-83
2023/05/15 12:14:29;;;;;;;4.15;2.28;;;20.40;72.50;;;;;;6247800;28;20053;-83
2023/05/15 12:17:32;;;;;;;2.17;1.30;;;20.10;74.30;;;;;;6228873;28;20050;-85
2023/05/15 12:20:34;;;;;;;3.97;1.60;;;19.80;75.40;;;;;;6221565;28;20091;-84
2023/05/15 12:23:36;;;;;;;1.98;1.70;;;19.50;76.80;;;;;;6223165;28;20061;-85
2023/05/15 12:26:38;;;;;;;2.05;1.85;;;19.60;78.30;;;;;;6234297;28;20057;-82
2023/05/15 12:29:42;;;;;;;1.30;1.20;;;19.90;78.70;;;;;;6229945;28;20377;-84
2023/05/15 12:32:44;;;;;;;2.33;1.60;;;20.40;78.30;;;;;;6232349;28;20054;-86
2023/05/15 12:35:53;;;;;;;1.33;1.02;;;21.20;75.90;;;;;;6237910;28;20060;-81
2023/05/15 12:38:55;;;;;;;1.48;1.38;;;22.00;72.80;;;;;;6241715;28;20053;-82
2023/05/15 12:41:58;;;;;;;3.25;1.50;;;22.80;70.20;;;;;;6243429;28;20053;-82
2023/05/15 12:45:01;;;;;;;0.90;0.90;;;23.20;67.30;;;;;;6247280;28;20037;-82
2023/05/15 12:48:03;;;;;;;1.23;1.13;;;23.50;65.10;;;;;;6234013;28;20050;-82
2023/05/15 12:51:06;;;;;;;4.05;1.48;;;23.60;63.70;;;;;;6228757;28;20508;-83
2023/05/15 12:54:17;;;;;;;1.70;1.00;;;23.80;63.80;;;;;;6234549;28;20057;-83
2023/05/15 12:57:18;;;;;;;1.15;1.05;;;23.90;62.50;;;;;;6236833;28;20050;-82
2023/05/15 13:00:23;;;;;;;1.42;1.30;;;23.60;63.10;;;;;;6231277;28;20049;-83
2023/05/15 13:03:26;;;;;;;3.45;2.05;;;23.50;63.30;;;;;;6223574;28;20404;-82
2023/05/15 13:06:28;;;;;;;8.82;5.90;;;23.90;63.10;;;;;;6221617;28;20059;-82
2023/05/15 13:09:32;;;;;;;5.20;4.72;;;24.60;61.30;;;;;;6232548;28;20053;-81
2023/05/15 13:12:37;;;;;;;1.08;0.90;;;25.30;60.10;;;;;;6225613;28;20046;-82
2023/05/15 13:15:43;;;;;;;2.70;2.45;;;25.50;59.60;;;;;;6229276;28;20049;-82
2023/05/15 13:18:45;;;;;;;6.38;5.13;;;25.70;59.70;;;;;;6238760;28;20049;-82
2023/05/15 13:21:49;;;;;;;6.70;3.13;;;25.80;58.90;;;;;;6242577;28;20057;-81
2023/05/15 13:24:52;;;;;;;3.00;2.33;;;26.00;58.40;;;;;;6222968;28;20092;-83
2023/05/15 13:27:57;;;;;;;2.42;2.00;;;26.10;58.10;;;;;;6221460;28;20046;-83
2023/05/15 13:31:00;;;;;;;4.32;2.75;;;26.00;58.10;;;;;;6222715;28;20049;-82
2023/05/15 13:34:02;;;;;;;1.63;1.30;;;26.30;57.60;;;;;;6233538;28;20045;-82
2023/05/15 13:37:04;;;;;;;3.10;2.13;;;26.30;57.20;;;;;;6241481;28;20061;-83
2023/05/15 13:40:09;;;;;;;3.40;1.35;;;26.40;56.10;;;;;;6244066;28;20053;-81
2023/05/15 13:43:11;;;;;;;2.80;1.67;;;26.10;56.00;;;;;;6244180;28;20053;-80
2023/05/15 13:46:15;;;;;;;4.20;2.80;;;26.00;57.00;;;;;;6247909;28;20053;-82
2023/05/15 13:49:16;;;;;;;22.23;20.38;;;26.00;57.20;;;;;;6245708;28;20041;-82
2023/05/15 13:52:18;;;;;;;8.40;7.70;;;25.90;57.00;;;;;;6241736;28;20075;-82
2023/05/15 13:55:20;;;;;;;4.45;4.05;;;25.80;57.00;;;;;;6242903;28;20056;-82
2023/05/15 13:58:25;;;;;;;4.68;4.38;;;25.40;57.70;;;;;;6245456;28;20049;-81
2023/05/15 14:01:28;;;;;;;5.32;4.05;;;25.20;58.20;;;;;;6236462;28;20042;-82
2023/05/15 14:04:29;;;;;;;6.95;5.57;;;24.90;59.10;;;;;;6237633;28;20049;-80
2023/05/15 14:07:31;;;;;;;4.43;4.00;;;24.60;59.60;;;;;;6234504;28;20048;-80
2023/05/15 14:10:36;;;;;;;2.30;2.20;;;24.20;60.30;;;;;;6219216;28;20045;-81
2023/05/15 14:13:37;;;;;;;2.45;2.28;;;23.60;62.80;;;;;;6223122;28;20049;-81
2023/05/15 14:16:40;;;;;;;3.47;3.17;;;23.10;65.70;;;;;;6239449;28;20412;-82
2023/05/15 14:19:42;;;;;;;6.45;5.47;;;22.60;68.00;;;;;;6243384;28;20139;-81
2023/05/15 14:22:44;;;;;;;3.85;3.55;;;21.90;70.20;;;;;;6245582;28;20124;-82
2023/05/15 14:25:46;;;;;;;4.60;4.20;;;21.40;72.40;;;;;;6231911;28;20049;-82
2023/05/15 14:28:47;;;;;;;5.07;4.68;;;20.80;74.50;;;;;;6225358;28;20045;-82
2023/05/15 14:31:50;;;;;;;3.50;3.20;;;20.40;75.60;;;;;;6228997;28;20038;-83
2023/05/15 14:34:58;;;;;;;5.88;4.50;;;20.30;75.90;;;;;;6235481;28;20049;-81
2023/05/15 14:38:04;;;;;;;3.70;3.30;;;20.20;76.80;;;;;;6236388;28;20293;-84
2023/05/15 14:41:05;;;;;;;4.53;3.58;;;20.30;77.90;;;;;;6225090;28;20053;-83
2023/05/15 14:44:07;;;;;;;7.47;4.38;;;20.30;79.00;;;;;;6221931;28;20049;-82
2023/05/15 14:47:12;;;;;;;3.97;3.65;;;20.40;80.50;;;;;;6226892;28;20124;-83
2023/05/15 14:50:13;;;;;;;3.53;3.00;;;20.30;81.30;;;;;;6244492;28;20057;-83
2023/05/15 14:53:15;;;;;;;6.22;3.53;;;20.20;82.20;;;;;;6242462;28;20045;-81
2023/05/15 14:56:17;;;;;;;3.88;3.45;;;20.10;82.20;;;;;;6231277;28;20064;-84
2023/05/15 14:59:18;;;;;;;3.30;2.83;;;20.00;82.70;;;;;;6217921;28;20132;-83
2023/05/15 15:02:21;;;;;;;4.32;2.85;;;19.90;82.90;;;;;;6217073;28;20053;-83
2023/05/15 15:05:23;;;;;;;3.20;3.00;;;19.90;83.00;;;;;;6229915;28;20053;-84
2023/05/15 15:08:27;;;;;;;4.57;3.08;;;19.90;82.80;;;;;;6233215;28;20056;-84
2023/05/15 15:11:41;;;;;;;5.32;3.17;;;20.00;83.40;;;;;;6235396;28;20045;-84
2023/05/15 15:14:43;;;;;;;3.50;3.20;;;20.00;83.10;;;;;;6236408;28;20037;-82
2023/05/15 15:18:20;;;;;;;3.60;3.33;;;19.90;83.00;;;;;;6236940;28;20049;-84
2023/05/15 15:21:22;;;;;;;5.43;3.50;;;19.90;83.50;;;;;;6208798;28;20153;-82
2023/05/15 15:24:25;;;;;;;2.60;2.40;;;19.80;83.60;;;;;;6212511;28;20048;-83
2023/05/15 15:27:32;;;;;;;3.13;2.70;;;19.80;84.10;;;;;;6184097;28;20412;-84
2023/05/15 15:30:39;;;;;;;3.33;3.03;;;19.70;83.90;;;;;;6202548;28;20069;-86
2023/05/15 15:40:57;;;;;;;5.72;3.97;;;19.10;84.80;;;;;;6198452;28;20480;-82
2023/05/15 15:44:06;;;;;;;3.38;2.85;;;19.10;85.00;;;;;;6210487;28;20069;-83
2023/05/15 15:47:08;;;;;;;3.50;3.22;;;19.20;85.50;;;;;;6214526;28;20067;-83
2023/05/15 15:50:11;;;;;;;9.10;3.65;;;19.20;85.60;;;;;;6237204;28;20045;-84
2023/05/15 15:53:13;;;;;;;7.60;3.15;;;19.40;87.30;;;;;;6240081;28;20531;-83
2023/05/15 15:56:15;;;;;;;3.92;3.40;;;19.60;87.60;;;;;;6238401;28;20061;-83
2023/05/15 15:59:17;;;;;;;5.97;3.65;;;19.70;87.30;;;;;;6232544;28;20046;-84
2023/05/15 16:02:22;;;;;;;3.92;3.63;;;19.60;87.40;;;;;;6214939;28;20054;-85
2023/05/15 16:05:30;;;;;;;3.72;3.00;;;19.90;88.00;;;;;;6227940;28;20042;-84
2023/05/15 16:08:32;;;;;;;3.40;3.10;;;20.00;86.30;;;;;;6231092;28;20082;-83
2023/05/15 16:11:34;;;;;;;3.85;3.20;;;20.30;85.80;;;;;;6226629;28;20049;-84